createdAt,value
2023-05-10T00:01:05.910Z,62.29
2023-05-10T00:03:35.365Z,62.32
2023-05-10T00:06:03.932Z,62.78
2023-05-10T00:08:35.700Z,62.59
2023-05-10T00:11:04.592Z,62.48
2023-05-10T00:13:34.409Z,62.61
2023-05-10T00:16:03.409Z,62.86
2023-05-10T00:18:30.611Z,63.13
2023-05-10T00:20:59.350Z,63.06
2023-05-10T00:23:31.593Z,63.24
2023-05-10T00:33:05.818Z,63.74
2023-05-10T00:35:33.755Z,64.10
2023-05-10T00:38:01.411Z,63.90
2023-05-10T00:40:29.915Z,63.78
2023-05-10T00:43:00.510Z,63.87
2023-05-10T00:45:28.203Z,63.91
2023-05-10T00:47:57.264Z,63.93
2023-05-10T00:50:27.144Z,64.18
2023-05-10T00:52:56.184Z,64.36
2023-05-10T00:55:23.464Z,64.66
2023-05-10T00:57:51.494Z,65.01
2023-05-10T01:00:19.492Z,65.13
2023-05-10T01:02:47.519Z,65.12
2023-05-10T01:05:14.919Z,65.58
2023-05-10T01:07:42.378Z,65.84
2023-05-10T01:10:11.797Z,65.88
2023-05-10T01:12:41.122Z,66.61
2023-05-10T01:15:28.572Z,67.32
2023-05-10T01:17:56.011Z,67.49
2023-05-10T01:20:24.765Z,67.45
2023-05-10T01:23:00.956Z,67.45
2023-05-10T01:25:38.759Z,66.98
2023-05-10T01:29:12.061Z,66.59
2023-05-10T01:32:10.677Z,66.70
2023-05-10T01:35:01.949Z,66.97
2023-05-10T01:37:57.496Z,67.44
2023-05-10T01:40:33.240Z,67.70
2023-05-10T01:43:05.409Z,68.02
2023-05-10T01:45:40.798Z,68.21
2023-05-10T01:48:11.694Z,68.63
2023-05-10T01:51:01.187Z,68.91
2023-05-10T01:53:30.984Z,68.90
2023-05-10T01:55:58.865Z,68.74
2023-05-10T01:59:06.780Z,68.55
2023-05-10T02:01:34.938Z,68.32
2023-05-10T02:04:02.217Z,68.62
2023-05-10T02:06:32.009Z,69.24
2023-05-10T02:09:00.005Z,69.24
2023-05-10T02:11:27.335Z,69.38
2023-05-10T02:13:56.481Z,69.73
2023-05-10T02:16:27.542Z,69.80
2023-05-10T02:18:55.212Z,69.97
2023-05-10T02:21:23.474Z,70.28
2023-05-10T02:23:50.995Z,70.89
2023-05-10T02:26:22.780Z,70.82
2023-05-10T02:28:50.274Z,71.14
2023-05-10T02:31:34.532Z,71.47
2023-05-10T02:34:03.045Z,71.60
2023-05-10T02:36:33.007Z,70.56
2023-05-10T02:39:00.377Z,70.51
2023-05-10T02:41:28.178Z,70.41
2023-05-10T02:43:58.859Z,70.25
2023-05-10T02:46:27.277Z,69.84
2023-05-10T02:48:54.452Z,69.62
2023-05-10T02:51:23.029Z,69.73
2023-05-10T02:53:50.435Z,69.51
2023-05-10T02:56:26.278Z,69.36
2023-05-10T02:58:54.402Z,69.48
2023-05-10T03:01:22.282Z,69.72
2023-05-10T03:03:51.431Z,69.89
2023-05-10T03:06:18.624Z,70.05
2023-05-10T03:08:45.865Z,69.80
2023-05-10T03:11:37.152Z,69.75
2023-05-10T03:14:28.439Z,69.19
2023-05-10T03:17:05.894Z,68.97
2023-05-10T03:19:59.214Z,68.79
2023-05-10T03:22:34.251Z,68.77
2023-05-10T03:25:26.469Z,68.65
2023-05-10T03:27:54.285Z,68.95
2023-05-10T03:30:27.560Z,69.21
2023-05-10T03:32:55.565Z,69.15
2023-05-10T03:35:22.861Z,69.95
2023-05-10T03:37:58.911Z,70.17
2023-05-10T03:40:41.849Z,69.97
2023-05-10T03:43:10.151Z,70.39
2023-05-10T03:45:44.839Z,69.60
2023-05-10T03:48:21.555Z,69.64
2023-05-10T03:51:30.945Z,69.56
2023-05-10T03:54:42.133Z,69.06
2023-05-10T03:57:29.922Z,68.11
2023-05-10T04:00:00.987Z,67.80
2023-05-10T04:02:28.852Z,67.24
2023-05-10T04:05:20.882Z,66.32
2023-05-10T04:08:12.527Z,65.93
2023-05-10T04:10:54.936Z,65.02
2023-05-10T04:13:24.685Z,64.41
2023-05-10T04:15:53.121Z,64.02
2023-05-10T04:18:27.678Z,63.59
2023-05-10T04:21:49.474Z,63.43
2023-05-10T04:24:41.322Z,62.86
2023-05-10T04:27:39.313Z,62.37
2023-05-10T04:30:14.696Z,61.36
2023-05-10T04:32:42.651Z,61.37
2023-05-10T04:35:32.448Z,61.01
2023-05-10T04:38:49.389Z,61.22
2023-05-10T04:41:18.424Z,60.63
2023-05-10T04:43:45.728Z,60.02
2023-05-10T04:46:13.059Z,59.85
2023-05-10T04:48:41.000Z,59.80
2023-05-10T04:51:08.437Z,58.40
2023-05-10T04:53:36.388Z,58.65
2023-05-10T04:56:05.534Z,58.44
2023-05-10T04:58:33.475Z,57.12
2023-05-10T05:01:09.092Z,56.53
2023-05-10T05:03:37.831Z,57.20
2023-05-10T05:06:10.652Z,56.31
2023-05-10T05:08:38.567Z,56.79
2023-05-10T05:11:22.237Z,56.51
2023-05-10T05:13:49.406Z,54.90
2023-05-10T05:16:16.937Z,53.90
2023-05-10T05:19:04.141Z,53.29
2023-05-10T05:21:52.435Z,53.03
2023-05-10T05:25:14.585Z,52.19
2023-05-10T05:28:21.163Z,52.97
2023-05-10T05:30:50.824Z,52.87
2023-05-10T05:33:43.456Z,51.68
2023-05-10T05:36:50.982Z,51.02
2023-05-10T05:39:56.428Z,51.08
2023-05-10T05:42:26.524Z,51.45
2023-05-10T05:44:58.020Z,51.23
2023-05-10T05:47:28.573Z,50.27
2023-05-10T05:49:57.075Z,51.06
2023-05-10T05:52:25.737Z,49.94
2023-05-10T05:54:54.396Z,49.81
2023-05-10T05:57:23.102Z,49.25
2023-05-10T05:59:52.007Z,48.90
2023-05-10T06:02:20.272Z,48.37
2023-05-10T06:04:50.685Z,46.14
2023-05-10T06:07:17.774Z,45.42
2023-05-10T06:09:44.967Z,45.52
2023-05-10T06:12:13.996Z,43.86
2023-05-10T06:15:01.180Z,43.11
2023-05-10T06:17:28.771Z,43.00
2023-05-10T06:19:56.683Z,42.21
2023-05-10T06:22:23.937Z,41.69
2023-05-10T06:24:51.603Z,41.04
2023-05-10T06:27:40.126Z,40.72
2023-05-10T06:30:12.923Z,40.72
2023-05-10T06:32:41.019Z,40.69
2023-05-10T06:35:10.067Z,40.85
2023-05-10T06:37:37.339Z,40.29
2023-05-10T06:40:10.480Z,40.49
2023-05-10T06:42:38.051Z,41.08
2023-05-10T06:45:10.333Z,41.41
2023-05-10T06:47:39.263Z,41.67
2023-05-10T06:50:10.853Z,42.60
2023-05-10T06:52:40.322Z,42.98
2023-05-10T06:55:10.184Z,42.38
2023-05-10T06:57:37.362Z,42.60
2023-05-10T07:00:25.162Z,41.78
2023-05-10T07:03:00.094Z,41.78
2023-05-10T07:05:30.998Z,41.28
2023-05-10T07:07:58.808Z,41.97
2023-05-10T07:10:27.981Z,41.56
2023-05-10T07:13:00.074Z,41.34
2023-05-10T07:15:28.010Z,41.72
2023-05-10T07:18:15.704Z,41.92
2023-05-10T07:20:45.617Z,41.68
2023-05-10T07:23:12.779Z,40.74
2023-05-10T07:25:40.175Z,41.90
2023-05-10T07:28:15.916Z,42.43
2023-05-10T07:30:43.527Z,42.70
2023-05-10T07:33:40.649Z,42.53
2023-05-10T07:36:09.518Z,41.98
2023-05-10T07:38:40.834Z,41.44
2023-05-10T07:41:10.641Z,41.18
2023-05-10T07:43:38.700Z,41.16
2023-05-10T07:46:12.517Z,41.47
2023-05-10T07:48:42.142Z,40.83
2023-05-10T07:51:11.522Z,38.50
2023-05-10T07:53:41.160Z,37.29
2023-05-10T07:56:33.538Z,36.48
2023-05-10T07:59:01.466Z,35.59
2023-05-10T08:01:36.049Z,35.31
2023-05-10T08:04:04.747Z,34.74
2023-05-10T08:06:33.123Z,35.46
2023-05-10T08:09:01.000Z,35.08
2023-05-10T08:11:29.283Z,34.61
2023-05-10T08:14:01.704Z,35.06
2023-05-10T08:16:37.335Z,35.58
2023-05-10T08:19:06.739Z,36.26
2023-05-10T08:21:36.240Z,36.79
2023-05-10T08:24:03.791Z,37.34
2023-05-10T08:26:45.822Z,38.16
2023-05-10T08:29:14.455Z,38.95
2023-05-10T08:31:57.448Z,38.80
2023-05-10T08:34:46.455Z,39.20
2023-05-10T08:37:35.671Z,39.84
2023-05-10T08:40:06.106Z,40.40
2023-05-10T08:42:38.645Z,40.81
2023-05-10T08:45:08.635Z,42.30
2023-05-10T08:47:38.137Z,43.76
2023-05-10T08:50:08.317Z,44.68
2023-05-10T08:52:37.856Z,46.72
2023-05-10T08:55:09.307Z,48.74
2023-05-10T08:57:42.757Z,49.61
2023-05-10T09:00:11.656Z,50.18
2023-05-10T09:02:56.341Z,48.71
2023-05-10T09:05:48.016Z,47.59
2023-05-10T09:08:32.444Z,45.77
2023-05-10T09:11:26.893Z,47.05
2023-05-10T09:13:54.879Z,47.98
2023-05-10T09:16:28.021Z,47.70
2023-05-10T09:19:36.065Z,48.03
2023-05-10T09:22:46.331Z,48.36
2023-05-10T09:26:24.697Z,49.30
2023-05-10T09:28:53.255Z,51.04
2023-05-10T09:31:55.341Z,50.97
2023-05-10T09:34:36.012Z,49.56
2023-05-10T09:37:05.725Z,48.74
2023-05-10T09:39:55.063Z,49.14
2023-05-10T09:42:32.566Z,48.56
2023-05-10T09:45:09.906Z,46.08
2023-05-10T09:47:38.362Z,45.67
2023-05-10T09:50:09.099Z,45.55
2023-05-10T09:52:56.402Z,44.49
2023-05-10T09:55:54.534Z,44.96
2023-05-10T09:58:24.062Z,44.79
2023-05-10T10:00:55.246Z,43.92
2023-05-10T10:03:29.684Z,43.96
2023-05-10T10:05:59.019Z,44.45
2023-05-10T10:08:35.325Z,45.09
2023-05-10T10:11:04.707Z,45.31
2023-05-10T10:14:01.593Z,45.41
2023-05-10T10:16:31.603Z,44.87
2023-05-10T10:19:40.615Z,44.11
2023-05-10T10:22:13.388Z,44.03
2023-05-10T10:24:42.411Z,42.78
2023-05-10T10:27:25.756Z,42.19
2023-05-10T10:30:38.209Z,43.23
2023-05-10T10:33:41.799Z,43.27
2023-05-10T10:36:38.462Z,43.05
2023-05-10T10:39:10.196Z,42.89
2023-05-10T10:41:59.121Z,44.41
2023-05-10T10:44:36.681Z,44.74
2023-05-10T10:47:41.443Z,45.67
2023-05-10T10:50:29.282Z,45.83
2023-05-10T10:52:56.772Z,45.74
2023-05-10T10:55:27.079Z,45.15
2023-05-10T10:58:01.614Z,45.86
2023-05-10T11:00:32.363Z,45.67
2023-05-10T11:03:15.108Z,46.47
2023-05-10T11:06:02.197Z,47.45
2023-05-10T11:09:13.218Z,46.50
2023-05-10T11:12:09.504Z,44.95
2023-05-10T11:14:37.086Z,40.50
2023-05-10T11:17:38.341Z,39.16
2023-05-10T11:20:34.652Z,40.63
2023-05-10T11:23:16.609Z,41.74
2023-05-10T11:25:45.660Z,42.19
2023-05-10T11:28:13.701Z,41.95
2023-05-10T11:30:41.951Z,41.70
2023-05-10T11:33:17.900Z,42.03
2023-05-10T11:35:47.316Z,41.53
2023-05-10T11:38:35.024Z,42.46
2023-05-10T11:41:04.935Z,43.28
2023-05-10T11:43:33.020Z,43.28
2023-05-10T11:46:05.131Z,43.69
2023-05-10T11:49:02.185Z,45.27
2023-05-10T11:51:29.762Z,47.37
2023-05-10T11:53:58.514Z,47.30
2023-05-10T11:56:56.397Z,47.09
2023-05-10T11:59:43.297Z,47.23
2023-05-10T12:02:11.210Z,47.50
2023-05-10T12:04:58.890Z,48.46
2023-05-10T12:07:49.227Z,49.40
2023-05-10T12:10:22.090Z,49.61
2023-05-10T12:12:50.378Z,48.80
2023-05-10T12:15:20.026Z,47.77
2023-05-10T12:17:47.507Z,47.61
2023-05-10T12:20:23.887Z,47.72
2023-05-10T12:23:28.189Z,47.11
2023-05-10T12:26:15.612Z,47.90
2023-05-10T12:28:47.509Z,45.97
2023-05-10T12:31:18.586Z,45.01
2023-05-10T12:33:47.424Z,46.27
2023-05-10T12:36:23.594Z,46.53
2023-05-10T12:38:53.127Z,46.09
2023-05-10T12:41:26.491Z,47.20
2023-05-10T12:44:03.648Z,47.36
2023-05-10T12:46:34.146Z,47.60
2023-05-10T12:49:22.252Z,48.70
2023-05-10T12:52:45.795Z,48.94
2023-05-10T12:55:22.319Z,48.65
2023-05-10T12:58:13.887Z,47.86
2023-05-10T13:00:46.800Z,48.51
2023-05-10T13:03:16.197Z,49.14
2023-05-10T13:06:10.020Z,49.81
2023-05-10T13:09:19.311Z,51.11
2023-05-10T13:12:09.998Z,50.82
2023-05-10T13:14:59.272Z,52.28
2023-05-10T13:18:11.220Z,50.75
2023-05-10T13:20:55.214Z,50.47
2023-05-10T13:23:25.784Z,49.71
2023-05-10T13:26:01.014Z,49.86
2023-05-10T13:28:32.071Z,49.39
2023-05-10T13:31:08.246Z,49.53
2023-05-10T13:34:14.014Z,49.20
2023-05-10T13:37:03.684Z,48.94
2023-05-10T13:40:00.307Z,49.27
2023-05-10T13:42:47.658Z,48.34
2023-05-10T13:45:17.879Z,48.51
2023-05-10T13:47:56.312Z,48.34
2023-05-10T13:51:12.281Z,48.78
2023-05-10T13:54:05.197Z,47.39
2023-05-10T13:56:54.533Z,46.62
2023-05-10T13:59:44.356Z,46.52
2023-05-10T14:03:03.578Z,47.15
2023-05-10T14:05:42.910Z,46.51
2023-05-10T14:08:43.388Z,45.86
2023-05-10T14:11:44.823Z,45.56
2023-05-10T14:14:35.109Z,46.21
2023-05-10T14:17:36.672Z,44.84
2023-05-10T14:20:12.787Z,44.96
2023-05-10T14:22:43.468Z,44.19
2023-05-10T14:25:11.941Z,42.51
2023-05-10T14:27:40.296Z,42.12
2023-05-10T14:30:11.221Z,42.69
2023-05-10T14:32:41.215Z,42.88
2023-05-10T14:35:14.491Z,43.68
2023-05-10T14:37:43.867Z,42.41
2023-05-10T14:40:12.367Z,41.51
2023-05-10T14:42:42.530Z,40.97
2023-05-10T14:45:15.246Z,41.01
2023-05-10T14:48:06.278Z,41.46
2023-05-10T14:50:39.207Z,41.72
2023-05-10T14:53:45.353Z,41.71
2023-05-10T14:56:14.439Z,41.68
2023-05-10T14:58:43.402Z,41.86
2023-05-10T15:01:13.487Z,42.16
2023-05-10T15:04:01.524Z,42.27
2023-05-10T15:06:33.132Z,42.27
2023-05-10T15:09:03.547Z,42.55
2023-05-10T15:11:35.417Z,41.54
2023-05-10T15:14:04.467Z,42.03
2023-05-10T15:16:35.833Z,41.82
2023-05-10T15:19:09.102Z,43.04
2023-05-10T15:21:45.408Z,42.31
2023-05-10T15:24:35.210Z,42.58
2023-05-10T15:27:08.793Z,41.87
2023-05-10T15:29:38.053Z,41.87
2023-05-10T15:32:08.013Z,41.98
2023-05-10T15:34:41.282Z,42.50
2023-05-10T15:37:10.606Z,43.72
2023-05-10T15:40:00.967Z,43.80
2023-05-10T15:42:38.190Z,44.80
2023-05-10T15:45:35.242Z,45.00
2023-05-10T15:48:21.569Z,46.75
2023-05-10T15:51:27.513Z,45.95
2023-05-10T15:54:06.431Z,45.48
2023-05-10T15:56:59.252Z,45.03
2023-05-10T15:59:30.127Z,45.94
2023-05-10T16:02:26.740Z,45.72
2023-05-10T16:05:20.089Z,45.68
2023-05-10T16:08:10.677Z,44.93
2023-05-10T16:10:43.956Z,44.99
2023-05-10T16:13:35.785Z,44.86
2023-05-10T16:16:04.847Z,44.57
2023-05-10T16:18:38.710Z,44.15
2023-05-10T16:21:12.452Z,44.52
2023-05-10T16:23:40.413Z,44.84
2023-05-10T16:26:23.675Z,45.50
2023-05-10T16:28:53.280Z,46.03
2023-05-10T16:31:25.460Z,46.33
2023-05-10T16:33:55.139Z,47.06
2023-05-10T16:36:24.682Z,46.73
2023-05-10T16:38:53.529Z,47.26
2023-05-10T16:41:22.862Z,47.84
2023-05-10T16:43:53.651Z,48.79
2023-05-10T16:46:25.730Z,48.85
2023-05-10T16:48:53.957Z,49.49
2023-05-10T16:51:21.873Z,49.67
2023-05-10T16:53:59.325Z,49.92
2023-05-10T16:56:39.049Z,50.00
2023-05-10T16:59:11.403Z,50.39
2023-05-10T17:01:42.444Z,50.35
2023-05-10T17:04:31.788Z,50.41
2023-05-10T17:07:01.565Z,50.53
2023-05-10T17:09:29.468Z,50.76
2023-05-10T17:11:59.140Z,51.22
2023-05-10T17:14:33.175Z,52.81
2023-05-10T17:17:06.429Z,51.62
2023-05-10T17:19:58.994Z,51.56
2023-05-10T17:22:47.044Z,51.41
2023-05-10T17:25:23.913Z,52.17
2023-05-10T17:27:57.124Z,51.92
2023-05-10T17:30:29.607Z,52.16
2023-05-10T17:33:07.645Z,54.16
2023-05-10T17:35:48.117Z,55.48
2023-05-10T17:38:19.279Z,55.31
2023-05-10T17:40:55.740Z,56.65
2023-05-10T17:44:04.359Z,55.60
2023-05-10T17:46:53.490Z,55.50
2023-05-10T17:49:25.079Z,55.71
2023-05-10T17:51:55.442Z,55.06
2023-05-10T17:54:27.223Z,55.64
2023-05-10T17:57:08.558Z,55.34
2023-05-10T17:59:48.741Z,56.02
2023-05-10T18:02:32.279Z,57.91
2023-05-10T18:05:02.283Z,58.69
2023-05-10T18:07:39.604Z,59.33
2023-05-10T18:10:48.660Z,59.74
2023-05-10T18:13:21.145Z,60.41
2023-05-10T18:15:57.820Z,60.89
2023-05-10T18:18:43.446Z,61.57
2023-05-10T18:21:15.033Z,62.08
2023-05-10T18:23:48.014Z,62.39
2023-05-10T18:26:17.905Z,62.70
2023-05-10T18:29:08.628Z,62.62
2023-05-10T18:32:20.338Z,62.93
2023-05-10T18:35:20.932Z,63.32
2023-05-10T18:37:49.205Z,64.04
2023-05-10T18:40:24.938Z,64.22
2023-05-10T18:43:09.692Z,64.26
2023-05-10T18:45:39.599Z,63.91
2023-05-10T18:48:10.536Z,63.77
2023-05-10T18:50:40.035Z,63.61
2023-05-10T18:53:09.235Z,63.70
2023-05-10T18:56:02.264Z,64.30
2023-05-10T18:58:46.633Z,64.10
2023-05-10T19:01:15.511Z,64.66
2023-05-10T19:03:50.358Z,65.07
2023-05-10T19:06:58.932Z,65.32
2023-05-10T19:09:46.923Z,65.60
2023-05-10T19:13:05.064Z,65.82
2023-05-10T19:15:33.639Z,65.53
2023-05-10T19:18:04.517Z,65.11
2023-05-10T19:20:56.317Z,64.90
2023-05-10T19:23:49.291Z,64.23
2023-05-10T19:26:21.200Z,64.58
2023-05-10T19:29:37.734Z,64.89
2023-05-10T19:32:48.937Z,65.04
2023-05-10T19:35:32.299Z,65.03
2023-05-10T19:38:01.649Z,64.90
2023-05-10T19:41:28.890Z,65.36
2023-05-10T19:43:57.281Z,65.59
2023-05-10T19:46:35.091Z,65.38
2023-05-10T19:49:05.273Z,64.48
2023-05-10T19:51:59.253Z,65.07
2023-05-10T19:54:33.132Z,65.15
2023-05-10T19:57:02.615Z,65.35
2023-05-10T19:59:50.560Z,65.52
2023-05-10T20:02:39.832Z,66.08
2023-05-10T20:05:08.380Z,66.85
2023-05-10T20:07:37.276Z,67.29
2023-05-10T20:10:05.860Z,67.32
2023-05-10T20:12:35.123Z,67.23
2023-05-10T20:15:05.871Z,67.18
2023-05-10T20:17:35.303Z,66.93
2023-05-10T20:20:04.378Z,67.40
2023-05-10T20:22:33.932Z,67.43
2023-05-10T20:25:01.523Z,67.32
2023-05-10T20:27:29.855Z,67.91
2023-05-10T20:30:13.765Z,67.25
2023-05-10T20:32:47.564Z,67.54
2023-05-10T20:35:23.382Z,67.69
2023-05-10T20:37:51.525Z,67.51
2023-05-10T20:40:19.450Z,67.53
2023-05-10T20:42:49.212Z,67.77
2023-05-10T20:45:22.640Z,67.55
2023-05-10T20:48:10.637Z,67.53
2023-05-10T20:50:39.973Z,66.16
2023-05-10T20:53:08.873Z,66.67
2023-05-10T20:55:37.767Z,65.43
2023-05-10T20:58:05.661Z,64.80
2023-05-10T21:00:34.941Z,64.07
2023-05-10T21:03:50.739Z,63.38
2023-05-10T21:06:18.497Z,62.28
2023-05-10T21:08:46.156Z,61.92
2023-05-10T21:11:36.073Z,62.14
2023-05-10T21:14:06.365Z,61.31
2023-05-10T21:16:35.012Z,62.22
2023-05-10T21:19:06.649Z,61.98
2023-05-10T21:21:34.628Z,61.98
2023-05-10T21:24:22.914Z,61.46
2023-05-10T21:26:52.275Z,61.74
2023-05-10T21:29:45.928Z,61.37
2023-05-10T21:32:16.093Z,61.48
2023-05-10T21:34:46.898Z,60.90
2023-05-10T21:37:35.362Z,62.17
2023-05-10T21:40:06.933Z,62.13
2023-05-10T21:42:35.490Z,60.85
2023-05-10T21:45:20.750Z,61.18
2023-05-10T21:47:49.226Z,61.66
2023-05-10T21:50:17.667Z,61.89
2023-05-10T21:53:05.342Z,61.11
2023-05-10T21:55:34.102Z,60.90
2023-05-10T21:58:04.586Z,61.31
2023-05-10T22:00:38.911Z,61.43
2023-05-10T22:03:15.126Z,60.88
2023-05-10T22:06:11.067Z,61.72
2023-05-10T22:08:39.303Z,61.42
2023-05-10T22:11:08.454Z,62.48
2023-05-10T22:13:58.410Z,62.22
2023-05-10T22:16:39.582Z,62.57
2023-05-10T22:19:07.063Z,63.17
2023-05-10T22:21:53.840Z,62.54
2023-05-10T22:24:26.734Z,62.04
2023-05-10T22:26:56.325Z,61.78
2023-05-10T22:29:46.093Z,62.29
2023-05-10T22:32:14.161Z,62.25
2023-05-10T22:34:42.723Z,62.31
2023-05-10T22:37:14.845Z,62.61
2023-05-10T22:39:43.007Z,62.60
2023-05-10T22:42:10.168Z,62.61
2023-05-10T22:44:38.358Z,62.60
2023-05-10T22:47:06.327Z,63.05
2023-05-10T22:49:42.438Z,63.48
2023-05-10T22:52:28.022Z,63.39
2023-05-10T22:54:56.824Z,63.32
2023-05-10T22:57:24.219Z,63.92
2023-05-10T22:59:51.831Z,64.18
2023-05-10T23:02:21.092Z,63.63
2023-05-10T23:04:57.392Z,64.35
2023-05-10T23:07:25.282Z,64.60
2023-05-10T23:10:02.996Z,64.36
2023-05-10T23:12:35.429Z,63.83
2023-05-10T23:15:05.611Z,64.76
2023-05-10T23:17:36.974Z,65.69
2023-05-10T23:20:06.067Z,66.08
2023-05-10T23:22:38.584Z,65.86
2023-05-10T23:25:09.983Z,65.35
2023-05-10T23:27:37.263Z,66.01
2023-05-10T23:30:21.340Z,66.32
2023-05-10T23:33:00.521Z,66.20
2023-05-10T23:35:31.234Z,66.66
2023-05-10T23:38:56.473Z,67.24
2023-05-10T23:41:26.040Z,67.67
2023-05-10T23:44:04.426Z,67.58
2023-05-10T23:46:34.248Z,68.18
2023-05-10T23:49:02.841Z,68.62
2023-05-10T23:51:32.809Z,68.27
2023-05-10T23:54:01.613Z,67.52
2023-05-10T23:56:50.997Z,67.89
2023-05-10T23:59:35.863Z,67.45
